Terminal Aerodrome Forecast
Issued by NWS

Home | Current Version | Previous Version | Text Only | Print | Product List | Glossary On
Versions: 1 2 3 4 5 6 7 8 9 10 11 12 13
000
FTUS45 KPSR 172300
TAFIWA
TAF
KIWA 172321Z 1800/1824 25007KT P6SM BKN250
     FM180300 VRB05KT P6SM BKN250
     FM180800 09005KT P6SM FEW150 BKN250
     FM181600 17012KT P6SM FEW120 BKN180
     FM182200 23012G20KT P6SM VCSH OVC100
      AMD LTD TO CLD VIS AND WIND 1803/1813=

USA.gov is the U.S. government's official web portal to all federal, state and local government web resources and services.